This is the latest recevied weather packets stored in our database for station/object OK3MS-5. If no packets are shown the sender has not sent any weather packets the latest 10 day(s).
| Time | Temp. | Humidity | Pressure | Rain* | Wind** | Luminosity | Snow |
|---|---|---|---|---|---|---|---|
| 1787744403 | 24.44° C | 56% | 1015.3 hPa | 0 mm | - | 577 W/m² | - |
| 1787744105 | 25° C | 54% | 1015.4 hPa | 0 mm | - | 296 W/m² | - |
| 1787743808 | 24.44° C | 53% | 1015.5 hPa | 0 mm | - | 211 W/m² | - |
| 1787743503 | 23.89° C | 56% | 1015.6 hPa | 0 mm | - | 799 W/m² | - |
| 1787743202 | 23.89° C | 55% | 1015.5 hPa | 0 mm | - | 784 W/m² | - |
| 1787742903 | 24.44° C | 55% | 1015.4 hPa | 0 mm | - | 669 W/m² | - |
| 1787742604 | 23.89° C | 54% | 1015.6 hPa | 0 mm | - | 273 W/m² | - |
| 1787742305 | 23.33° C | 59% | 1015.8 hPa | 0 mm | - | 732 W/m² | - |
| 1787742004 | 23.89° C | 57% | 1015.6 hPa | 0 mm | - | 724 W/m² | - |
| 1787741703 | 23.89° C | 56% | 1015.6 hPa | 0 mm | - | 731 W/m² | - |
| 1787741405 | 24.44° C | 55% | 1015.7 hPa | 0 mm | - | 764 W/m² | - |
| 1787741103 | 24.44° C | 56% | 1015.6 hPa | 0 mm | - | 413 W/m² | - |
| 1787740803 | 23.89° C | 56% | 1015.8 hPa | 0 mm | - | 740 W/m² | - |
| 1787740504 | 23.33° C | 58% | 1015.8 hPa | 0 mm | - | 653 W/m² | - |
| 1787740204 | 23.33° C | 58% | 1015.9 hPa | 0 mm | - | 726 W/m² | - |
| 1787739904 | 23.33° C | 58% | 1016 hPa | 0 mm | - | 751 W/m² | - |
| 1787739604 | 22.78° C | 59% | 1016.1 hPa | 0 mm | - | 703 W/m² | - |
| 1787739303 | 22.78° C | 60% | 1016.1 hPa | 0 mm | - | 474 W/m² | - |
| 1787739004 | 22.78° C | 62% | 1016 hPa | 0 mm | - | 426 W/m² | - |
| 1787738705 | 22.78° C | 60% | 1016.2 hPa | 0 mm | - | 396 W/m² | - |
| 1787738406 | 22.78° C | 61% | 1016.1 hPa | 0 mm | - | 359 W/m² | - |
| 1787738105 | 22.78° C | 59% | 1016.2 hPa | 0 mm | - | 338 W/m² | - |
| 1787737802 | 22.22° C | 62% | 1016.2 hPa | 0 mm | - | 715 W/m² | - |
| 1787737504 | 22.22° C | 62% | 1016.2 hPa | 0 mm | - | 756 W/m² | - |
| 1787737204 | 23.33° C | 61% | 1016.1 hPa | 0 mm | - | 645 W/m² | - |
* Rain latest hour (hover to see other rain measurements)
** Current wind speed in m/s (hover to see current wind gust speed)